Time;durP1;ratioP1;P1;durP2;ratioP2;P2;SDS_P1;SDS_P2;PMS_P1;PMS_P2;Temp;Humidity;BMP_temperature;BMP_pressure;BME280_temperature;BME280_humidity;BME280_pressure;Samples;Min_cycle;Max_cycle;Signal;HPM_P1;HPM_P2
2022/10/30 00:00:25;;;;;;;24.50;6.60;;;;;;;11.62;69.75;93588.03;2048080;70;20180;-75
2022/10/30 00:02:50;;;;;;;16.70;5.90;;;;;;;11.75;69.39;93581.91;2048011;70;20551;-75
2022/10/30 00:05:18;;;;;;;14.38;5.50;;;;;;;11.82;68.83;93586.69;2048014;70;20179;-76
2022/10/30 00:07:44;;;;;;;18.25;4.95;;;;;;;11.92;69.09;93578.91;2047776;70;20862;-76
2022/10/30 00:10:10;;;;;;;15.77;5.25;;;;;;;11.64;69.78;93582.53;2047950;70;20130;-74
2022/10/30 00:12:36;;;;;;;17.80;5.28;;;;;;;11.66;69.67;93583.41;2047477;69;20210;-75
2022/10/30 00:15:02;;;;;;;21.65;5.10;;;;;;;11.64;70.91;93577.66;2050043;70;20166;-76
2022/10/30 00:17:28;;;;;;;14.77;5.50;;;;;;;11.69;69.48;93579.41;2048040;70;20857;-77
2022/10/30 00:19:54;;;;;;;17.92;5.60;;;;;;;11.85;69.68;93573.44;2050002;70;20197;-76
2022/10/30 00:22:19;;;;;;;21.13;5.38;;;;;;;11.93;69.28;93574.75;2048223;70;20248;-76
2022/10/30 00:24:45;;;;;;;20.50;4.80;;;;;;;11.88;68.59;93575.06;2047969;70;20138;-76
2022/10/30 00:27:11;;;;;;;15.10;4.05;;;;;;;11.91;68.54;93571.03;2048189;70;20518;-75
2022/10/30 00:29:36;;;;;;;22.45;4.90;;;;;;;11.57;70.16;93566.53;2047902;70;20166;-76
2022/10/30 00:32:02;;;;;;;19.50;4.68;;;;;;;11.67;70.36;93576.44;2047329;70;20150;-76
2022/10/30 00:34:27;;;;;;;12.18;4.70;;;;;;;11.69;69.90;93570.22;2047429;70;20155;-76
2022/10/30 00:36:53;;;;;;;16.25;4.57;;;;;;;11.74;70.08;93565.59;2048113;70;20154;-76
2022/10/30 00:39:19;;;;;;;16.88;4.93;;;;;;;11.60;70.02;93559.69;2047676;69;20162;-76
2022/10/30 00:41:45;;;;;;;18.08;4.90;;;;;;;11.49;70.03;93561.03;2050060;70;20170;-76
2022/10/30 00:44:51;;;;;;;16.35;4.70;;;;;;;11.63;68.96;93562.03;2047815;70;20139;-75
2022/10/30 00:47:36;;;;;;;16.58;5.03;;;;;;;11.62;69.11;93559.81;2044110;70;20177;-76
2022/10/30 00:50:11;;;;;;;14.63;4.70;;;;;;;11.60;69.99;93559.69;2044076;70;20641;-76
2022/10/30 00:52:42;;;;;;;13.95;4.45;;;;;;;11.60;69.24;93562.50;2041680;70;20205;-76
2022/10/30 00:55:14;;;;;;;13.40;4.75;;;;;;;11.56;69.55;93553.75;2044384;70;20631;-76
2022/10/30 00:57:41;;;;;;;14.93;4.30;;;;;;;11.51;68.65;93563.28;2044479;70;20146;-76
2022/10/30 01:00:11;;;;;;;13.63;4.43;;;;;;;11.42;69.71;93556.31;2043958;70;20202;-76
2022/10/30 01:02:38;;;;;;;15.00;5.32;;;;;;;11.25;70.58;93553.66;2044444;70;20132;-76
2022/10/30 01:05:05;;;;;;;10.60;4.50;;;;;;;11.33;70.79;93565.53;2041664;70;20230;-75
2022/10/30 01:07:30;;;;;;;13.40;4.90;;;;;;;11.39;70.28;93560.31;2044347;70;20177;-75
2022/10/30 01:09:57;;;;;;;13.63;4.38;;;;;;;11.49;69.35;93557.47;2044377;70;20166;-76
2022/10/30 01:12:23;;;;;;;13.07;4.35;;;;;;;11.26;70.47;93547.44;2040907;70;20178;-75
2022/10/30 01:14:53;;;;;;;13.70;4.85;;;;;;;11.23;70.11;93550.72;2044012;70;20630;-75
2022/10/30 01:17:37;;;;;;;16.02;4.60;;;;;;;11.28;70.96;93555.31;2044220;70;20147;-76
2022/10/30 01:20:06;;;;;;;11.23;3.95;;;;;;;11.34;70.11;93553.66;2041212;70;20151;-76
2022/10/30 01:22:53;;;;;;;14.13;4.47;;;;;;;11.29;69.92;93551.88;2052045;69;20248;-76
2022/10/30 01:25:27;;;;;;;17.10;4.65;;;;;;;11.34;69.44;93559.28;2053902;70;20265;-76
2022/10/30 01:28:12;;;;;;;20.80;4.70;;;;;;;11.24;70.27;93549.38;2054575;69;20492;-76
2022/10/30 01:31:08;;;;;;;14.85;4.30;;;;;;;11.17;70.24;93560.19;2054453;69;20218;-76
2022/10/30 01:33:56;;;;;;;15.68;4.00;;;;;;;11.20;70.51;93556.19;2053950;70;20177;-75
2022/10/30 01:36:42;;;;;;;18.00;4.95;;;;;;;11.19;70.92;93546.25;2054092;69;20142;-75
2022/10/30 01:39:39;;;;;;;17.50;4.55;;;;;;;11.27;69.75;93554.56;2052001;70;20522;-75
2022/10/30 01:42:09;;;;;;;18.10;5.00;;;;;;;11.01;70.63;93553.41;2052839;70;20161;-75
2022/10/30 01:44:35;;;;;;;17.60;6.22;;;;;;;10.88;71.67;93551.75;2053989;69;20150;-75
2022/10/30 01:47:31;;;;;;;14.80;5.88;;;;;;;11.02;71.43;93548.50;2054963;69;20516;-77
2022/10/30 01:50:00;;;;;;;17.48;6.00;;;;;;;11.06;69.61;93538.25;2054639;70;20154;-76
2022/10/30 01:52:54;;;;;;;16.77;5.55;;;;;;;11.08;69.80;93538.41;2051849;70;20173;-76
2022/10/30 01:55:29;;;;;;;22.38;6.03;;;;;;;11.04;70.23;93537.38;2054823;69;20169;-75
2022/10/30 01:58:02;;;;;;;24.02;5.40;;;;;;;11.04;69.74;93540.94;2054535;69;20221;-75
2022/10/30 02:00:28;;;;;;;14.45;5.28;;;;;;;10.96;70.66;93537.53;2053741;69;20623;-76
2022/10/30 02:02:54;;;;;;;20.70;5.18;;;;;;;11.00;71.23;93532.19;2051750;69;20327;-76
2022/10/30 02:05:46;;;;;;;14.90;4.78;;;;;;;11.08;70.79;93529.22;2050807;70;20150;-76
2022/10/30 02:08:13;;;;;;;23.92;6.70;;;;;;;10.80;71.22;93539.16;2051248;70;20146;-76
2022/10/30 02:10:41;;;;;;;17.10;6.20;;;;;;;10.81;71.63;93524.50;2051773;69;20141;-75
2022/10/30 02:13:07;;;;;;;18.50;5.82;;;;;;;10.78;71.19;93527.75;2051721;69;20484;-76
2022/10/30 02:15:34;;;;;;;15.80;6.18;;;;;;;10.51;72.17;93533.53;2051457;69;20139;-76
2022/10/30 02:18:00;;;;;;;17.20;5.95;;;;;;;10.79;70.73;93520.78;2045690;70;20145;-76
2022/10/30 02:20:26;;;;;;;18.63;6.10;;;;;;;10.84;70.05;93520.47;2053774;69;20135;-77
2022/10/30 02:22:53;;;;;;;19.48;5.18;;;;;;;10.92;71.12;93523.91;2051930;70;20154;-77
2022/10/30 02:25:19;;;;;;;18.58;5.60;;;;;;;10.76;70.82;93524.78;2053851;69;20162;-76
2022/10/30 02:27:45;;;;;;;14.38;5.43;;;;;;;10.73;71.16;93528.81;2051385;70;20161;-77
2022/10/30 02:30:11;;;;;;;13.60;4.85;;;;;;;10.89;71.16;93527.16;2050886;70;20154;-77
2022/10/30 02:32:37;;;;;;;18.95;5.78;;;;;;;10.84;71.04;93519.75;2051119;70;20150;-73
2022/10/30 02:35:03;;;;;;;17.17;6.03;;;;;;;10.68;71.09;93522.13;2050950;70;20510;-76
2022/10/30 02:37:31;;;;;;;24.10;5.00;;;;;;;10.63;71.72;93521.09;2051419;69;20173;-75
2022/10/30 02:39:57;;;;;;;16.23;5.18;;;;;;;10.82;70.22;93523.16;2050559;70;20614;-76
2022/10/30 02:42:23;;;;;;;12.50;4.28;;;;;;;10.79;69.59;93515.16;2050687;70;20157;-75
2022/10/30 02:44:54;;;;;;;15.35;4.25;;;;;;;10.75;70.42;93526.13;2053126;69;20170;-75
2022/10/30 02:47:19;;;;;;;17.35;4.50;;;;;;;10.72;70.33;93516.78;2048029;70;20147;-75
2022/10/30 02:49:45;;;;;;;12.23;4.15;;;;;;;10.77;70.15;93515.75;2050971;70;20165;-76
2022/10/30 02:52:11;;;;;;;15.43;4.20;;;;;;;10.93;69.72;93519.72;2051127;70;20166;-74
2022/10/30 02:54:37;;;;;;;15.00;4.28;;;;;;;10.75;71.51;93512.03;2051706;69;20146;-76
2022/10/30 02:57:03;;;;;;;17.00;4.13;;;;;;;10.67;71.22;93520.63;2047991;70;20230;-74
2022/10/30 02:59:29;;;;;;;15.45;4.70;;;;;;;10.73;70.89;93523.91;2048031;70;20146;-75
2022/10/30 03:01:56;;;;;;;14.30;4.30;;;;;;;10.71;70.46;93515.28;2050569;70;20139;-75
2022/10/30 03:04:25;;;;;;;18.60;4.70;;;;;;;10.70;70.83;93519.44;2048057;70;20153;-75
2022/10/30 03:06:50;;;;;;;13.45;3.97;;;;;;;10.83;70.38;93521.09;2047781;70;20134;-75
2022/10/30 03:09:16;;;;;;;16.15;3.95;;;;;;;10.70;71.14;93516.63;2053256;69;20154;-75
2022/10/30 03:11:43;;;;;;;15.32;4.35;;;;;;;10.81;70.06;93516.06;2050729;70;20131;-75
2022/10/30 03:14:09;;;;;;;12.43;3.85;;;;;;;10.67;70.01;93517.81;2051307;69;20173;-75
2022/10/30 03:16:36;;;;;;;15.30;4.10;;;;;;;10.58;70.58;93521.34;2050621;70;20178;-75
2022/10/30 03:19:03;;;;;;;13.35;3.63;;;;;;;10.78;69.59;93519.31;2051079;70;20149;-76
2022/10/30 03:21:29;;;;;;;15.27;4.05;;;;;;;10.71;69.86;93514.56;2051191;70;20161;-76
2022/10/30 03:23:55;;;;;;;15.60;4.22;;;;;;;10.57;70.50;93520.63;2051648;69;20147;-76
2022/10/30 03:26:21;;;;;;;11.52;4.07;;;;;;;10.66;70.48;93516.31;2051595;69;20142;-77
2022/10/30 03:28:54;;;;;;;17.83;3.75;;;;;;;10.70;70.28;93519.44;2050879;70;20220;-77
2022/10/30 03:31:20;;;;;;;14.63;4.00;;;;;;;10.73;70.07;93512.63;2050555;70;20567;-76
2022/10/30 03:33:55;;;;;;;14.60;3.88;;;;;;;10.77;68.79;93515.75;2050788;70;20201;-77
2022/10/30 03:36:20;;;;;;;9.95;3.70;;;;;;;10.70;69.20;93519.44;2050655;70;20146;-76
2022/10/30 03:38:46;;;;;;;13.30;4.13;;;;;;;10.67;69.34;93523.44;2051038;70;20138;-77
2022/10/30 03:41:15;;;;;;;15.90;5.15;;;;;;;10.68;68.83;93519.31;2050440;70;20747;-76
2022/10/30 03:43:42;;;;;;;15.50;4.35;;;;;;;10.72;69.50;93527.28;2050754;70;20186;-75
2022/10/30 03:46:10;;;;;;;13.80;4.13;;;;;;;10.72;69.33;93528.06;2051547;69;20158;-76
2022/10/30 03:48:36;;;;;;;18.60;3.90;;;;;;;10.46;70.66;93523.28;2050990;69;20176;-76
2022/10/30 03:51:02;;;;;;;9.82;3.60;;;;;;;10.62;69.87;93532.91;2050905;70;20150;-77
2022/10/30 03:53:29;;;;;;;16.00;4.28;;;;;;;10.54;69.84;93532.34;2048490;70;20166;-76
2022/10/30 03:56:00;;;;;;;17.33;5.53;;;;;;;10.41;70.99;93525.06;2051108;70;20218;-76
2022/10/30 03:58:33;;;;;;;17.73;4.80;;;;;;;10.54;70.46;93530.28;2050996;70;20666;-76
2022/10/30 04:01:01;;;;;;;20.10;4.55;;;;;;;10.48;71.83;93529.06;2048075;70;20197;-76
2022/10/30 04:03:27;;;;;;;13.02;4.65;;;;;;;10.61;70.27;93525.81;2050746;70;20185;-76
2022/10/30 04:05:53;;;;;;;16.63;4.50;;;;;;;10.58;69.83;93527.00;2050688;69;20673;-76
2022/10/30 04:08:20;;;;;;;11.95;4.22;;;;;;;10.59;70.37;93529.22;2050693;69;20162;-76
2022/10/30 04:10:46;;;;;;;15.57;4.88;;;;;;;10.33;71.30;93535.72;2050411;70;20674;-76
2022/10/30 04:13:14;;;;;;;16.27;4.80;;;;;;;10.40;71.13;93529.97;2050559;70;20202;-74
2022/10/30 04:15:48;;;;;;;13.98;4.88;;;;;;;10.49;70.78;93536.16;2050613;70;20146;-76
2022/10/30 04:18:15;;;;;;;15.32;4.80;;;;;;;10.49;70.05;93525.69;2050740;70;20165;-77
2022/10/30 04:20:41;;;;;;;18.30;4.32;;;;;;;10.60;69.61;93527.91;2050317;70;20161;-77
2022/10/30 04:23:12;;;;;;;16.45;4.35;;;;;;;10.78;69.13;93520.03;2050887;70;20205;-76
2022/10/30 04:25:38;;;;;;;17.17;4.22;;;;;;;10.76;68.70;93536.03;2051236;70;20623;-76
2022/10/30 04:28:04;;;;;;;12.60;4.53;;;;;;;10.77;68.88;93524.19;2051193;70;20150;-76
2022/10/30 04:30:34;;;;;;;13.77;4.40;;;;;;;10.63;68.86;93520.34;2050459;70;20134;-77
2022/10/30 04:33:02;;;;;;;18.33;5.93;;;;;;;10.45;69.86;93524.63;2053119;70;20689;-76
2022/10/30 04:35:35;;;;;;;21.13;7.60;;;;;;;10.35;71.43;93521.78;2052800;70;20158;-75
2022/10/30 04:38:05;;;;;;;22.92;8.00;;;;;;;10.45;70.25;93516.94;2051195;70;20154;-76
2022/10/30 04:40:36;;;;;;;21.42;9.00;;;;;;;10.50;70.49;93515.88;2050305;70;20176;-76
2022/10/30 04:43:06;;;;;;;15.77;7.25;;;;;;;10.46;69.80;93518.41;2050795;70;20594;-74
2022/10/30 04:45:33;;;;;;;19.95;7.30;;;;;;;10.49;69.86;93513.66;2051073;70;20684;-75
2022/10/30 04:48:07;;;;;;;18.90;6.45;;;;;;;10.45;69.85;93516.19;2050801;70;20216;-75
2022/10/30 04:50:33;;;;;;;15.10;6.72;;;;;;;10.38;69.77;93526.25;2050350;70;20146;-76
2022/10/30 04:53:01;;;;;;;17.05;6.10;;;;;;;10.35;69.92;93516.88;2050796;70;20217;-74
2022/10/30 04:55:28;;;;;;;17.30;6.40;;;;;;;10.32;70.33;93520.16;2051022;70;20221;-75
2022/10/30 04:57:59;;;;;;;21.73;8.13;;;;;;;10.39;69.73;93517.19;2051164;70;20142;-76
2022/10/30 05:00:26;;;;;;;22.38;6.75;;;;;;;10.37;70.40;93517.06;2050486;70;20602;-75
2022/10/30 05:03:03;;;;;;;19.17;7.47;;;;;;;10.37;69.91;93517.06;2050657;70;20158;-76
2022/10/30 05:05:30;;;;;;;17.85;6.90;;;;;;;10.26;70.35;93517.63;2051223;69;20154;-75
2022/10/30 05:07:56;;;;;;;26.75;7.82;;;;;;;10.20;70.76;93519.94;2054047;69;20189;-75
2022/10/30 05:10:22;;;;;;;100.38;43.83;;;;;;;10.43;70.52;93519.56;2054011;70;20228;-76
2022/10/30 05:12:52;;;;;;;45.03;17.38;;;;;;;10.37;70.42;93522.69;2053846;70;20292;-76
2022/10/30 05:15:17;;;;;;;39.75;18.52;;;;;;;10.54;69.48;93515.44;2051211;70;20153;-75
2022/10/30 05:17:43;;;;;;;42.55;19.23;;;;;;;10.41;69.82;93514.53;2054122;69;20146;-76
2022/10/30 05:20:09;;;;;;;31.15;14.13;;;;;;;10.36;70.32;93509.94;2053999;69;20146;-75
2022/10/30 05:22:35;;;;;;;47.10;19.80;;;;;;;10.25;70.20;93516.13;2053938;70;20613;-76
2022/10/30 05:25:00;;;;;;;49.15;20.88;;;;;;;10.28;70.31;93514.22;2054109;69;20178;-76
2022/10/30 05:27:26;;;;;;;39.38;18.80;;;;;;;10.32;69.90;93520.91;2053991;69;20146;-76
2022/10/30 05:29:52;;;;;;;43.78;19.35;;;;;;;10.24;69.87;93511.09;2053912;69;20162;-76
2022/10/30 05:32:18;;;;;;;46.65;20.27;;;;;;;10.08;70.31;93516.22;2054159;69;20149;-74
2022/10/30 05:34:46;;;;;;;35.97;15.60;;;;;;;10.24;69.94;93513.91;2054675;70;20172;-75
2022/10/30 05:37:16;;;;;;;37.28;18.13;;;;;;;10.16;71.15;93511.19;2054674;69;20161;-75
2022/10/30 05:39:43;;;;;;;40.00;16.98;;;;;;;10.12;70.58;93508.09;2054607;69;20559;-75
2022/10/30 05:42:21;;;;;;;34.42;15.82;;;;;;;10.21;70.51;93513.00;2054701;69;20530;-74
2022/10/30 05:44:47;;;;;;;36.65;16.48;;;;;;;10.13;70.66;93510.31;2054614;69;20138;-74
2022/10/30 05:47:13;;;;;;;29.20;14.65;;;;;;;10.21;70.66;93506.63;2054658;70;20146;-76
2022/10/30 05:49:43;;;;;;;25.88;10.80;;;;;;;10.12;70.18;93513.72;2054726;69;20146;-75
2022/10/30 05:52:14;;;;;;;24.13;11.93;;;;;;;10.11;70.45;93509.41;2052097;69;20142;-76
2022/10/30 05:54:40;;;;;;;24.83;11.00;;;;;;;10.06;70.48;93514.00;2054387;69;20144;-75
2022/10/30 05:57:12;;;;;;;21.65;10.20;;;;;;;10.18;70.80;93511.38;2054681;69;20172;-76
2022/10/30 05:59:38;;;;;;;21.65;10.05;;;;;;;10.12;70.82;93517.25;2054532;69;20323;-78
2022/10/30 06:02:04;;;;;;;21.80;9.70;;;;;;;10.09;70.35;93507.22;2055163;69;20668;-76
2022/10/30 06:04:30;;;;;;;24.38;8.57;;;;;;;10.18;70.43;93508.56;2054406;70;20697;-74
2022/10/30 06:06:58;;;;;;;18.98;7.93;;;;;;;10.06;70.82;93516.06;2054542;69;20240;-74
2022/10/30 06:09:24;;;;;;;23.42;7.78;;;;;;;10.01;71.58;93509.41;2055134;69;20184;-74
2022/10/30 06:12:02;;;;;;;23.42;7.72;;;;;;;10.18;70.31;93517.00;2054642;69;20182;-74
2022/10/30 06:14:41;;;;;;;27.98;12.73;;;;;;;10.19;70.19;93512.84;2054343;69;20615;-77
2022/10/30 06:17:07;;;;;;;31.58;12.00;;;;;;;10.16;70.41;93517.56;2055107;69;20154;-75
2022/10/30 06:19:48;;;;;;;23.23;9.05;;;;;;;10.18;70.37;93514.94;2054436;70;20142;-76
2022/10/30 06:22:37;;;;;;;22.63;8.88;;;;;;;10.28;70.66;93512.16;2051633;69;20228;-76
2022/10/30 06:25:12;;;;;;;23.02;8.45;;;;;;;10.31;70.14;93510.22;2054995;69;20525;-76
2022/10/30 06:27:50;;;;;;;40.85;22.80;;;;;;;10.25;70.43;93512.59;2054425;69;20157;-75
2022/10/30 06:30:16;;;;;;;32.70;15.05;;;;;;;10.31;70.52;93515.84;2054299;69;20181;-76
2022/10/30 06:32:42;;;;;;;31.83;13.30;;;;;;;10.36;70.43;93509.94;2054550;69;20181;-76
2022/10/30 06:35:07;;;;;;;23.17;9.13;;;;;;;10.46;70.21;93514.84;2055013;69;20509;-76
2022/10/30 06:37:33;;;;;;;29.10;11.98;;;;;;;10.30;71.19;93514.38;2055178;69;20222;-77
2022/10/30 06:40:06;;;;;;;25.67;12.10;;;;;;;10.52;70.68;93516.03;2054359;69;20153;-76
2022/10/30 06:42:52;;;;;;;33.92;12.30;;;;;;;10.41;70.75;93508.19;2055199;69;20617;-77
2022/10/30 06:45:42;;;;;;;20.70;12.07;;;;;;;10.41;70.65;93516.63;2054691;69;20272;-76
2022/10/30 06:48:08;;;;;;;26.90;11.93;;;;;;;10.55;70.36;93519.75;2054496;69;20142;-77
2022/10/30 06:50:39;;;;;;;21.35;9.65;;;;;;;10.60;69.98;93518.72;2054450;69;20510;-77
2022/10/30 06:53:04;;;;;;;23.73;9.70;;;;;;;10.76;69.96;93505.78;2053794;69;20160;-77
2022/10/30 06:55:31;;;;;;;23.98;9.30;;;;;;;10.78;70.26;93519.31;2053788;69;20154;-77
2022/10/30 06:58:15;;;;;;;18.55;7.53;;;;;;;10.75;70.68;93512.78;2054141;69;20153;-77
2022/10/30 07:01:05;;;;;;;12.93;4.90;;;;;;;11.00;68.59;93511.75;2054497;69;20280;-76
2022/10/30 07:03:40;;;;;;;13.93;5.82;;;;;;;11.04;67.98;93523.28;2054641;69;20157;-77
2022/10/30 07:06:06;;;;;;;14.80;5.72;;;;;;;11.03;67.59;93519.72;2053426;69;20282;-77
2022/10/30 07:08:32;;;;;;;23.48;7.57;;;;;;;10.93;68.03;93516.19;2051844;70;20157;-77
2022/10/30 07:10:58;;;;;;;16.95;7.03;;;;;;;11.08;67.84;93515.84;2051039;69;20154;-77
2022/10/30 07:13:35;;;;;;;18.30;7.63;;;;;;;10.97;68.44;93510.84;2051141;70;20186;-77
2022/10/30 07:16:18;;;;;;;22.10;6.97;;;;;;;11.06;68.52;93518.53;2051046;70;20522;-77
2022/10/30 07:18:46;;;;;;;19.92;7.60;;;;;;;11.12;68.25;93521.78;2050886;69;20169;-77
2022/10/30 07:21:12;;;;;;;25.50;12.10;;;;;;;11.07;68.45;93528.47;2050842;70;20154;-76
2022/10/30 07:23:38;;;;;;;18.63;10.05;;;;;;;11.17;68.61;93525.63;2051626;70;20189;-76
2022/10/30 07:26:25;;;;;;;17.48;8.80;;;;;;;11.25;68.04;93523.41;2050976;69;20158;-77
2022/10/30 07:28:53;;;;;;;18.38;8.77;;;;;;;11.15;69.13;93522.69;2050733;70;20551;-77
2022/10/30 07:31:21;;;;;;;20.00;8.43;;;;;;;11.19;68.87;93520.16;2050713;69;20165;-76
2022/10/30 07:33:50;;;;;;;20.75;8.73;;;;;;;11.21;68.77;93511.84;2051517;69;20229;-77
2022/10/30 07:36:34;;;;;;;17.50;9.07;;;;;;;11.26;69.13;93527.69;2051587;70;20150;-77
2022/10/30 07:39:18;;;;;;;21.48;8.95;;;;;;;11.27;69.10;93525.63;2051255;70;20157;-79
2022/10/30 07:42:04;;;;;;;19.70;9.00;;;;;;;11.31;68.23;93520.28;2050868;69;20162;-76
2022/10/30 07:44:42;;;;;;;22.90;9.15;;;;;;;11.25;69.40;93517.03;2050839;70;20142;-75
2022/10/30 07:47:12;;;;;;;18.70;8.80;;;;;;;11.24;69.12;93519.09;2050671;70;20153;-76
2022/10/30 07:49:44;;;;;;;21.77;9.18;;;;;;;11.32;68.87;93521.78;2053838;69;20537;-77
2022/10/30 07:52:12;;;;;;;21.58;10.25;;;;;;;11.29;68.86;93515.25;2054190;69;20138;-77
2022/10/30 07:54:37;;;;;;;24.05;9.82;;;;;;;11.35;69.61;93517.75;2054114;69;20153;-76
2022/10/30 07:57:23;;;;;;;23.67;9.30;;;;;;;11.36;69.14;93516.41;2050906;69;20158;-75
2022/10/30 08:00:11;;;;;;;25.58;9.77;;;;;;;11.44;69.08;93520.53;2054351;69;20149;-77
2022/10/30 08:02:40;;;;;;;23.20;10.07;;;;;;;11.42;69.72;93519.66;2054858;69;20533;-77
2022/10/30 08:05:23;;;;;;;23.48;9.85;;;;;;;11.41;69.77;93510.47;2054262;69;20234;-75
2022/10/30 08:08:03;;;;;;;23.15;9.65;;;;;;;11.86;69.51;93515.66;2054118;69;20201;-77
2022/10/30 08:10:28;;;;;;;21.67;9.70;;;;;;;12.11;69.05;93512.44;2053950;69;20301;-76
2022/10/30 08:12:54;;;;;;;21.60;10.02;;;;;;;12.37;70.61;93514.22;2054329;69;20138;-75
2022/10/30 08:15:21;;;;;;;18.75;9.10;;;;;;;12.87;70.15;93512.53;2054237;69;20237;-76
2022/10/30 08:17:48;;;;;;;24.45;9.60;;;;;;;13.11;67.50;93507.72;2054310;69;20193;-76
2022/10/30 08:20:16;;;;;;;25.25;10.25;;;;;;;13.45;67.85;93501.44;2054659;69;20173;-77
2022/10/30 08:22:52;;;;;;;24.75;10.57;;;;;;;13.70;65.57;93502.97;2054606;70;20146;-76
2022/10/30 08:25:23;;;;;;;25.02;10.70;;;;;;;13.96;66.32;93512.34;2054264;70;20161;-76
2022/10/30 08:27:51;;;;;;;20.92;10.00;;;;;;;14.15;63.80;93506.41;2054207;70;20134;-78
2022/10/30 08:30:17;;;;;;;22.77;10.07;;;;;;;14.58;64.46;93503.34;2054010;69;20164;-76
2022/10/30 08:32:43;;;;;;;26.17;9.10;;;;;;;14.97;62.19;93494.97;2053898;70;20173;-76
2022/10/30 08:35:32;;;;;;;19.33;8.52;;;;;;;14.85;60.20;93502.03;2053588;70;20156;-76
2022/10/30 08:38:01;;;;;;;21.27;7.97;;;;;;;15.37;62.16;93492.94;2054137;69;20305;-76
2022/10/30 08:40:28;;;;;;;22.50;8.13;;;;;;;15.84;62.68;93491.94;2054014;69;20582;-76
2022/10/30 08:43:00;;;;;;;15.73;7.72;;;;;;;16.08;57.73;93481.91;2053920;69;20499;-78
2022/10/30 08:45:26;;;;;;;18.55;7.40;;;;;;;15.84;56.86;93484.16;2054611;69;20166;-77
2022/10/30 08:48:05;;;;;;;16.52;6.47;;;;;;;16.33;56.02;93480.31;2053747;69;20196;-78
2022/10/30 08:50:35;;;;;;;17.10;7.10;;;;;;;16.49;54.98;93478.31;2053781;69;20153;-77
2022/10/30 08:53:03;;;;;;;19.92;6.95;;;;;;;16.81;54.99;93476.41;2053930;69;20150;-77
2022/10/30 08:55:30;;;;;;;15.07;6.60;;;;;;;17.16;53.98;93472.44;2054130;69;20201;-78
2022/10/30 08:57:58;;;;;;;20.05;7.03;;;;;;;17.25;53.20;93471.44;2054051;69;20149;-78
2022/10/30 09:00:25;;;;;;;15.88;6.57;;;;;;;17.59;50.98;93466.66;2053873;69;20181;-78
2022/10/30 09:03:11;;;;;;;23.48;7.03;;;;;;;17.89;52.83;93455.25;2048854;70;20613;-78
2022/10/30 09:06:06;;;;;;;14.98;6.78;;;;;;;18.01;51.28;93458.66;2047421;69;20225;-77
2022/10/30 09:08:50;;;;;;;17.88;6.70;;;;;;;18.08;51.84;93460.38;2054197;69;20208;-76
2022/10/30 09:11:28;;;;;;;17.45;5.63;;;;;;;18.44;51.00;93458.41;2053638;69;20610;-77
2022/10/30 09:13:56;;;;;;;17.17;5.68;;;;;;;18.99;49.21;93454.34;2053429;69;20273;-77
2022/10/30 09:16:21;;;;;;;21.92;5.63;;;;;;;19.22;49.65;93453.13;2053481;69;20546;-77
2022/10/30 09:18:47;;;;;;;21.58;6.10;;;;;;;19.16;48.49;93450.78;2054064;69;20165;-78
2022/10/30 09:21:12;;;;;;;18.40;5.50;;;;;;;19.26;49.58;93459.00;2053882;69;20142;-78
2022/10/30 09:23:43;;;;;;;18.42;5.40;;;;;;;19.85;47.41;93449.94;2054280;69;20150;-77
2022/10/30 09:26:30;;;;;;;16.75;5.40;;;;;;;19.98;47.04;93451.88;2054930;69;20474;-78
2022/10/30 09:29:07;;;;;;;15.48;4.65;;;;;;;20.42;46.97;93445.59;2051762;70;20245;-77
2022/10/30 09:31:52;;;;;;;14.50;5.10;;;;;;;20.61;45.52;93450.59;2049316;69;20606;-77
2022/10/30 09:34:19;;;;;;;11.88;4.03;;;;;;;21.60;45.98;93443.16;2054231;69;20161;-78
2022/10/30 09:36:54;;;;;;;12.85;4.13;;;;;;;21.70;44.90;93443.47;2054496;69;20185;-78
2022/10/30 09:39:19;;;;;;;13.55;3.80;;;;;;;21.41;43.28;93448.31;2054385;69;20518;-77
2022/10/30 09:42:16;;;;;;;15.38;4.07;;;;;;;22.01;43.56;93436.53;2054238;69;20216;-77
2022/10/30 09:44:50;;;;;;;17.05;4.18;;;;;;;22.29;43.91;93434.53;2054022;69;20146;-77
2022/10/30 09:47:35;;;;;;;12.23;3.50;;;;;;;22.55;41.61;93434.56;2054952;69;20181;-77
2022/10/30 09:50:10;;;;;;;8.77;3.20;;;;;;;22.97;39.43;93433.53;2055016;69;20150;-77
2022/10/30 09:53:00;;;;;;;18.58;3.67;;;;;;;22.52;40.28;93435.91;2054580;69;20232;-77
2022/10/30 09:55:35;;;;;;;9.93;3.25;;;;;;;23.64;38.88;93431.59;2055051;69;20153;-76
2022/10/30 09:58:40;;;;;;;14.75;3.08;;;;;;;23.20;37.64;93435.56;2054901;69;20173;-76
2022/10/30 10:01:08;;;;;;;12.98;3.90;;;;;;;24.03;38.71;93424.63;2050806;70;20173;-75
2022/10/30 10:03:46;;;;;;;12.65;2.63;;;;;;;23.44;36.72;93421.06;2048294;70;20149;-75
2022/10/30 10:06:59;;;;;;;11.05;2.58;;;;;;;24.52;34.61;93423.53;2050675;70;20237;-76
2022/10/30 10:09:42;;;;;;;13.88;2.92;;;;;;;24.07;34.82;93422.56;2047645;70;20138;-77
2022/10/30 10:12:39;;;;;;;14.67;3.03;;;;;;;25.04;33.58;93425.94;2041974;70;20191;-76
2022/10/30 10:15:27;;;;;;;11.73;2.78;;;;;;;25.33;31.85;93432.22;2044396;70;20264;-77
2022/10/30 10:17:54;;;;;;;15.88;3.22;;;;;;;25.90;33.20;93423.81;2041357;70;20154;-77
2022/10/30 10:20:44;;;;;;;13.00;2.55;;;;;;;25.58;32.35;93428.34;2044297;70;20195;-77
2022/10/30 10:23:29;;;;;;;14.07;2.55;;;;;;;25.28;33.83;93416.31;2043619;70;20638;-78
2022/10/30 10:26:05;;;;;;;12.57;2.55;;;;;;;27.19;30.22;93418.22;2044865;70;20305;-77
2022/10/30 10:28:56;;;;;;;9.85;2.50;;;;;;;28.50;28.02;93425.03;2044473;70;20591;-77
2022/10/30 10:31:27;;;;;;;11.05;2.80;;;;;;;27.91;29.42;93416.72;2044779;70;20666;-76
2022/10/30 10:34:20;;;;;;;12.32;2.78;;;;;;;29.04;28.19;93415.84;2045382;70;20143;-76
2022/10/30 10:36:57;;;;;;;;;;;;;;;29.90;27.22;93410.16;2045539;70;20158;-76
2022/10/30 10:39:23;;;;;;;12.88;3.22;;;;;;;30.38;26.96;93408.66;2044603;70;20047;-76
2022/10/30 10:41:54;;;;;;;10.75;2.53;;;;;;;29.78;27.31;93402.19;2044652;70;20202;-77
2022/10/30 10:44:45;;;;;;;11.87;2.93;;;;;;;31.24;26.46;93400.31;2044970;70;20143;-77
2022/10/30 10:47:22;;;;;;;14.77;2.90;;;;;;;32.47;25.95;93400.06;2044893;70;20383;-77
2022/10/30 10:50:19;;;;;;;14.52;3.42;;;;;;;33.48;24.81;93393.75;2044828;70;20210;-76
2022/10/30 10:52:52;;;;;;;15.25;3.40;;;;;;;33.46;23.58;93394.50;2045378;70;20171;-77
2022/10/30 10:55:25;;;;;;;12.85;3.38;;;;;;;32.20;25.20;93384.31;2045097;70;20150;-77
2022/10/30 10:57:53;;;;;;;10.68;3.00;;;;;;;32.56;24.88;93383.94;2044985;70;20210;-78
2022/10/30 11:00:22;;;;;;;9.15;2.85;;;;;;;33.93;24.48;93384.28;2045023;70;20147;-79
2022/10/30 11:02:59;;;;;;;13.50;3.10;;;;;;;34.75;23.63;93381.34;2045125;70;20159;-78
2022/10/30 11:05:32;;;;;;;12.45;3.13;;;;;;;33.94;22.38;93383.50;2045275;70;20154;-76
2022/10/30 11:08:05;;;;;;;11.45;2.67;;;;;;;35.04;23.27;93378.56;2047664;70;20613;-78
2022/10/30 11:10:31;;;;;;;11.15;2.88;;;;;;;36.27;19.91;93381.59;2051354;69;20166;-77
2022/10/30 11:12:56;;;;;;;14.05;2.90;;;;;;;37.59;19.63;93368.38;2051117;70;20225;-78
2022/10/30 11:15:33;;;;;;;15.65;3.70;;;;;;;35.95;20.25;93372.16;2051666;69;20146;-78
2022/10/30 11:18:05;;;;;;;11.75;3.45;;;;;;;35.84;20.94;93376.81;2051619;69;20566;-78
2022/10/30 11:20:43;;;;;;;11.68;4.07;;;;;;;35.00;21.91;93372.09;2051387;69;20243;-78
2022/10/30 11:23:33;;;;;;;16.45;4.40;;;;;;;37.47;19.79;93365.81;2051721;70;20456;-78
2022/10/30 11:26:01;;;;;;;13.13;3.80;;;;;;;38.11;17.81;93363.00;2051135;69;20283;-78
2022/10/30 11:28:35;;;;;;;10.63;2.95;;;;;;;39.20;17.76;93362.88;2052860;69;20185;-79
2022/10/30 11:31:19;;;;;;;10.52;3.40;;;;;;;38.28;18.03;93359.53;2051930;69;20241;-79
2022/10/30 11:33:45;;;;;;;11.13;4.30;;;;;;;35.74;21.94;93359.47;2052666;70;20188;-79
2022/10/30 11:36:15;;;;;;;11.98;3.92;;;;;;;38.62;18.57;93357.59;2053059;69;20142;-78
2022/10/30 11:38:40;;;;;;;11.48;3.63;;;;;;;39.57;17.56;93350.41;2053316;69;20547;-78
2022/10/30 11:41:09;;;;;;;8.65;2.80;;;;;;;39.48;17.95;93357.41;2054529;69;20205;-77
2022/10/30 11:43:36;;;;;;;11.57;4.30;;;;;;;36.54;19.88;93346.47;2054850;69;20497;-78
2022/10/30 11:46:08;;;;;;;13.73;3.88;;;;;;;38.78;18.89;93345.28;2054825;69;20130;-78